This is the latest recevied weather packets stored in our database for station/object EA1BVF-10. If no packets are shown the sender has not sent any weather packets the latest 10 day(s).
| Time | Temp. | Humidity | Pressure | Rain* | Wind** | Luminosity | Snow |
|---|---|---|---|---|---|---|---|
| 1787668583 | 13.33° C | 92% | 1031.9 hPa | - | - | - | - |
| 1787666785 | 13.33° C | 94% | 1032 hPa | - | - | - | - |
| 1787664982 | 13.33° C | 91% | 1032 hPa | - | - | - | - |
| 1787663182 | 12.78° C | 92% | 1031.8 hPa | - | - | - | - |
| 1787661382 | 12.78° C | 91% | 1031.8 hPa | - | - | - | - |
| 1787659585 | 12.78° C | 90% | 1031.6 hPa | - | - | - | - |
| 1787657782 | 12.78° C | 89% | 1032.1 hPa | - | - | - | - |
| 1787655982 | 12.78° C | 90% | 1031.9 hPa | - | - | - | - |
| 1787654182 | 12.78° C | 91% | 1031.9 hPa | - | - | - | - |
| 1787652384 | 12.78° C | 91% | 1031.8 hPa | - | - | - | - |
| 1787650582 | 12.78° C | 91% | 1031.6 hPa | - | - | - | - |
| 1787648782 | 12.78° C | 91% | 1031.3 hPa | - | - | - | - |
| 1787646982 | 12.78° C | 92% | 1031.3 hPa | - | - | - | - |
| 1787645184 | 12.78° C | 93% | 1031.1 hPa | - | - | - | - |
| 1787643379 | 12.78° C | 93% | 1031.1 hPa | - | - | - | - |
| 1787641579 | 12.78° C | 88% | 1030.7 hPa | - | - | - | - |
| 1787597752 | 15.56° C | 97% | 1027.6 hPa | - | - | - | - |
| 1787595952 | 16.11° C | 97% | 1027.3 hPa | - | - | - | - |
| 1787594151 | 16.11° C | 97% | 1027.2 hPa | - | - | - | - |
| 1787592351 | 16.11° C | 97% | 1026.9 hPa | - | - | - | - |
| 1787590552 | 16.11° C | 97% | 1026.7 hPa | - | - | - | - |
| 1787588751 | 16.11° C | 97% | 1027 hPa | - | - | - | - |
| 1787586951 | 16.11° C | 97% | 1027.2 hPa | - | - | - | - |
| 1787585151 | 16.11° C | 96% | 1027.4 hPa | - | - | - | - |
| 1787583351 | 16.11° C | 96% | 1027.8 hPa | - | - | - | - |
* Rain since midnight (hover to see other rain measurements)
** Current wind speed in m/s (hover to see current wind gust speed)